sensor_id;sensor_type;location;lat;lon;timestamp;P1;durP1;ratioP1;P2;durP2;ratioP2
54947;SDS011;41113;41.882;12.530;2023-03-01T00:01:15;8.70;;;3.35;;
54947;SDS011;41113;41.882;12.530;2023-03-01T00:03:45;8.00;;;3.30;;
54947;SDS011;41113;41.882;12.530;2023-03-01T00:06:11;8.23;;;3.30;;
54947;SDS011;41113;41.882;12.530;2023-03-01T00:08:36;8.32;;;3.30;;
54947;SDS011;41113;41.882;12.530;2023-03-01T00:13:30;8.30;;;3.05;;
54947;SDS011;41113;41.882;12.530;2023-03-01T00:15:56;8.37;;;3.60;;
54947;SDS011;41113;41.882;12.530;2023-03-01T00:18:22;10.30;;;3.70;;
54947;SDS011;41113;41.882;12.530;2023-03-01T00:20:51;8.38;;;3.63;;
54947;SDS011;41113;41.882;12.530;2023-03-01T00:23:20;8.73;;;3.70;;
54947;SDS011;41113;41.882;12.530;2023-03-01T00:25:47;10.55;;;3.97;;
54947;SDS011;41113;41.882;12.530;2023-03-01T00:28:12;10.10;;;4.18;;
54947;SDS011;41113;41.882;12.530;2023-03-01T00:30:38;9.88;;;3.78;;
54947;SDS011;41113;41.882;12.530;2023-03-01T00:33:03;12.88;;;6.93;;
54947;SDS011;41113;41.882;12.530;2023-03-01T00:35:29;10.77;;;5.50;;
54947;SDS011;41113;41.882;12.530;2023-03-01T00:37:54;11.57;;;5.82;;
54947;SDS011;41113;41.882;12.530;2023-03-01T00:40:33;12.18;;;6.00;;
54947;SDS011;41113;41.882;12.530;2023-03-01T00:43:00;12.35;;;6.47;;
54947;SDS011;41113;41.882;12.530;2023-03-01T00:45:26;11.90;;;6.85;;
54947;SDS011;41113;41.882;12.530;2023-03-01T00:47:51;12.88;;;7.43;;
54947;SDS011;41113;41.882;12.530;2023-03-01T00:50:17;13.52;;;7.68;;
54947;SDS011;41113;41.882;12.530;2023-03-01T00:52:43;12.50;;;6.93;;
54947;SDS011;41113;41.882;12.530;2023-03-01T00:55:09;14.93;;;7.03;;
54947;SDS011;41113;41.882;12.530;2023-03-01T00:57:35;11.25;;;6.25;;
54947;SDS011;41113;41.882;12.530;2023-03-01T01:00:00;12.63;;;7.25;;
54947;SDS011;41113;41.882;12.530;2023-03-01T01:02:25;13.05;;;6.95;;
54947;SDS011;41113;41.882;12.530;2023-03-01T01:04:51;11.88;;;6.35;;
54947;SDS011;41113;41.882;12.530;2023-03-01T01:07:17;11.30;;;6.53;;
54947;SDS011;41113;41.882;12.530;2023-03-01T01:09:45;11.77;;;6.72;;
54947;SDS011;41113;41.882;12.530;2023-03-01T01:12:10;12.75;;;7.18;;
54947;SDS011;41113;41.882;12.530;2023-03-01T01:14:36;10.52;;;5.72;;
54947;SDS011;41113;41.882;12.530;2023-03-01T01:17:01;12.35;;;6.10;;
54947;SDS011;41113;41.882;12.530;2023-03-01T01:19:27;11.45;;;7.05;;
54947;SDS011;41113;41.882;12.530;2023-03-01T01:21:53;11.50;;;6.55;;
54947;SDS011;41113;41.882;12.530;2023-03-01T01:24:18;11.68;;;6.65;;
54947;SDS011;41113;41.882;12.530;2023-03-01T01:26:44;11.05;;;5.65;;
54947;SDS011;41113;41.882;12.530;2023-03-01T01:29:10;11.57;;;6.18;;
54947;SDS011;41113;41.882;12.530;2023-03-01T01:31:36;10.60;;;5.93;;
54947;SDS011;41113;41.882;12.530;2023-03-01T01:34:03;12.13;;;6.72;;
54947;SDS011;41113;41.882;12.530;2023-03-01T01:36:31;11.10;;;6.45;;
54947;SDS011;41113;41.882;12.530;2023-03-01T01:38:57;14.05;;;6.68;;
54947;SDS011;41113;41.882;12.530;2023-03-01T01:41:23;11.45;;;6.28;;
54947;SDS011;41113;41.882;12.530;2023-03-01T01:46:35;11.52;;;5.90;;
54947;SDS011;41113;41.882;12.530;2023-03-01T01:49:05;11.07;;;5.80;;
54947;SDS011;41113;41.882;12.530;2023-03-01T01:51:45;11.35;;;6.03;;
54947;SDS011;41113;41.882;12.530;2023-03-01T01:54:18;12.20;;;6.18;;
54947;SDS011;41113;41.882;12.530;2023-03-01T01:56:50;12.48;;;6.00;;
54947;SDS011;41113;41.882;12.530;2023-03-01T01:59:18;13.70;;;6.32;;
54947;SDS011;41113;41.882;12.530;2023-03-01T02:01:49;10.95;;;6.20;;
54947;SDS011;41113;41.882;12.530;2023-03-01T02:04:15;11.00;;;5.95;;
54947;SDS011;41113;41.882;12.530;2023-03-01T02:06:42;10.77;;;6.05;;
54947;SDS011;41113;41.882;12.530;2023-03-01T02:09:15;11.90;;;6.60;;
54947;SDS011;41113;41.882;12.530;2023-03-01T02:11:43;11.75;;;6.28;;
54947;SDS011;41113;41.882;12.530;2023-03-01T02:14:09;12.27;;;6.28;;
54947;SDS011;41113;41.882;12.530;2023-03-01T02:16:34;10.75;;;5.47;;
54947;SDS011;41113;41.882;12.530;2023-03-01T02:19:00;10.73;;;5.50;;
54947;SDS011;41113;41.882;12.530;2023-03-01T02:21:45;9.38;;;4.75;;
54947;SDS011;41113;41.882;12.530;2023-03-01T02:24:49;11.00;;;5.05;;
54947;SDS011;41113;41.882;12.530;2023-03-01T02:27:18;9.93;;;3.92;;
54947;SDS011;41113;41.882;12.530;2023-03-01T02:29:49;9.10;;;3.35;;
54947;SDS011;41113;41.882;12.530;2023-03-01T02:32:15;7.78;;;3.05;;
54947;SDS011;41113;41.882;12.530;2023-03-01T02:34:51;6.93;;;2.63;;
54947;SDS011;41113;41.882;12.530;2023-03-01T02:37:21;6.13;;;2.35;;
54947;SDS011;41113;41.882;12.530;2023-03-01T02:39:54;7.38;;;2.45;;
54947;SDS011;41113;41.882;12.530;2023-03-01T02:42:24;6.85;;;1.83;;
54947;SDS011;41113;41.882;12.530;2023-03-01T02:44:56;4.78;;;1.73;;
54947;SDS011;41113;41.882;12.530;2023-03-01T02:47:22;6.00;;;2.05;;
54947;SDS011;41113;41.882;12.530;2023-03-01T02:49:48;6.93;;;2.50;;
54947;SDS011;41113;41.882;12.530;2023-03-01T02:57:33;7.60;;;2.35;;
54947;SDS011;41113;41.882;12.530;2023-03-01T03:00:10;6.95;;;2.10;;
54947;SDS011;41113;41.882;12.530;2023-03-01T03:02:44;6.57;;;2.13;;
54947;SDS011;41113;41.882;12.530;2023-03-01T03:05:12;7.85;;;2.63;;
54947;SDS011;41113;41.882;12.530;2023-03-01T03:07:46;6.28;;;2.30;;
54947;SDS011;41113;41.882;12.530;2023-03-01T03:10:16;8.32;;;3.03;;
54947;SDS011;41113;41.882;12.530;2023-03-01T03:12:48;7.20;;;3.10;;
54947;SDS011;41113;41.882;12.530;2023-03-01T03:15:17;10.13;;;2.42;;
54947;SDS011;41113;41.882;12.530;2023-03-01T03:17:45;5.43;;;2.05;;
54947;SDS011;41113;41.882;12.530;2023-03-01T03:20:11;7.35;;;2.42;;
54947;SDS011;41113;41.882;12.530;2023-03-01T03:22:43;6.40;;;2.40;;
54947;SDS011;41113;41.882;12.530;2023-03-01T03:25:13;8.00;;;2.63;;
54947;SDS011;41113;41.882;12.530;2023-03-01T03:27:40;9.20;;;2.50;;
54947;SDS011;41113;41.882;12.530;2023-03-01T03:30:08;7.85;;;2.28;;
54947;SDS011;41113;41.882;12.530;2023-03-01T03:32:37;5.13;;;1.98;;
54947;SDS011;41113;41.882;12.530;2023-03-01T03:35:04;7.68;;;2.40;;
54947;SDS011;41113;41.882;12.530;2023-03-01T03:37:40;7.38;;;2.13;;
54947;SDS011;41113;41.882;12.530;2023-03-01T03:40:25;5.82;;;2.17;;
54947;SDS011;41113;41.882;12.530;2023-03-01T03:42:51;6.15;;;1.80;;
54947;SDS011;41113;41.882;12.530;2023-03-01T03:45:17;6.65;;;2.50;;
54947;SDS011;41113;41.882;12.530;2023-03-01T03:47:43;7.20;;;2.65;;
54947;SDS011;41113;41.882;12.530;2023-03-01T03:50:09;6.68;;;2.58;;
54947;SDS011;41113;41.882;12.530;2023-03-01T03:52:36;5.57;;;2.08;;
54947;SDS011;41113;41.882;12.530;2023-03-01T03:55:01;5.70;;;2.13;;
54947;SDS011;41113;41.882;12.530;2023-03-01T03:57:26;6.88;;;2.30;;
54947;SDS011;41113;41.882;12.530;2023-03-01T03:59:52;5.88;;;2.30;;
54947;SDS011;41113;41.882;12.530;2023-03-01T04:02:17;6.15;;;2.00;;
54947;SDS011;41113;41.882;12.530;2023-03-01T04:04:47;5.85;;;2.15;;
54947;SDS011;41113;41.882;12.530;2023-03-01T04:07:15;5.47;;;1.92;;
54947;SDS011;41113;41.882;12.530;2023-03-01T04:09:40;4.70;;;1.63;;
54947;SDS011;41113;41.882;12.530;2023-03-01T04:12:07;4.53;;;1.70;;
54947;SDS011;41113;41.882;12.530;2023-03-01T04:14:33;4.60;;;1.70;;
54947;SDS011;41113;41.882;12.530;2023-03-01T04:16:58;5.60;;;1.67;;
54947;SDS011;41113;41.882;12.530;2023-03-01T04:19:23;5.55;;;1.70;;
54947;SDS011;41113;41.882;12.530;2023-03-01T04:21:49;5.95;;;1.80;;
54947;SDS011;41113;41.882;12.530;2023-03-01T04:24:15;5.32;;;1.75;;
54947;SDS011;41113;41.882;12.530;2023-03-01T04:26:40;4.57;;;1.58;;
54947;SDS011;41113;41.882;12.530;2023-03-01T04:29:05;4.80;;;1.83;;
54947;SDS011;41113;41.882;12.530;2023-03-01T04:31:31;5.50;;;1.58;;
54947;SDS011;41113;41.882;12.530;2023-03-01T04:33:57;3.15;;;1.20;;
54947;SDS011;41113;41.882;12.530;2023-03-01T04:36:23;5.10;;;1.50;;
54947;SDS011;41113;41.882;12.530;2023-03-01T04:38:50;4.50;;;1.23;;
54947;SDS011;41113;41.882;12.530;2023-03-01T04:41:17;2.15;;;1.17;;
54947;SDS011;41113;41.882;12.530;2023-03-01T04:43:44;4.55;;;1.30;;
54947;SDS011;41113;41.882;12.530;2023-03-01T04:46:14;3.17;;;1.20;;
54947;SDS011;41113;41.882;12.530;2023-03-01T04:48:41;3.38;;;1.20;;
54947;SDS011;41113;41.882;12.530;2023-03-01T04:51:07;5.45;;;1.30;;
54947;SDS011;41113;41.882;12.530;2023-03-01T04:53:34;3.70;;;1.30;;
54947;SDS011;41113;41.882;12.530;2023-03-01T04:56:01;3.53;;;1.20;;
54947;SDS011;41113;41.882;12.530;2023-03-01T04:58:27;3.00;;;1.30;;
54947;SDS011;41113;41.882;12.530;2023-03-01T05:00:53;3.97;;;1.40;;
54947;SDS011;41113;41.882;12.530;2023-03-01T05:03:19;3.40;;;1.20;;
54947;SDS011;41113;41.882;12.530;2023-03-01T05:05:47;5.00;;;1.40;;
54947;SDS011;41113;41.882;12.530;2023-03-01T05:08:15;4.88;;;1.55;;
54947;SDS011;41113;41.882;12.530;2023-03-01T05:10:48;6.25;;;1.55;;
54947;SDS011;41113;41.882;12.530;2023-03-01T05:13:15;3.70;;;1.52;;
54947;SDS011;41113;41.882;12.530;2023-03-01T05:15:46;5.10;;;1.63;;
54947;SDS011;41113;41.882;12.530;2023-03-01T05:18:23;4.05;;;1.40;;
54947;SDS011;41113;41.882;12.530;2023-03-01T05:20:53;7.32;;;1.50;;
54947;SDS011;41113;41.882;12.530;2023-03-01T05:23:23;4.80;;;1.73;;
54947;SDS011;41113;41.882;12.530;2023-03-01T05:25:48;4.60;;;1.50;;
54947;SDS011;41113;41.882;12.530;2023-03-01T05:28:15;5.65;;;1.67;;
54947;SDS011;41113;41.882;12.530;2023-03-01T05:30:40;4.70;;;1.55;;
54947;SDS011;41113;41.882;12.530;2023-03-01T05:33:06;5.57;;;1.60;;
54947;SDS011;41113;41.882;12.530;2023-03-01T05:35:38;4.88;;;2.00;;
54947;SDS011;41113;41.882;12.530;2023-03-01T05:38:05;7.82;;;2.40;;
54947;SDS011;41113;41.882;12.530;2023-03-01T05:40:32;7.07;;;2.20;;
54947;SDS011;41113;41.882;12.530;2023-03-01T05:42:58;6.50;;;1.90;;
54947;SDS011;41113;41.882;12.530;2023-03-01T05:45:24;4.03;;;1.60;;
54947;SDS011;41113;41.882;12.530;2023-03-01T05:47:50;7.38;;;1.88;;
54947;SDS011;41113;41.882;12.530;2023-03-01T05:50:17;6.72;;;1.75;;
54947;SDS011;41113;41.882;12.530;2023-03-01T05:52:51;5.45;;;1.60;;
54947;SDS011;41113;41.882;12.530;2023-03-01T05:55:37;6.38;;;1.70;;
54947;SDS011;41113;41.882;12.530;2023-03-01T05:58:04;4.45;;;1.50;;
54947;SDS011;41113;41.882;12.530;2023-03-01T06:00:31;3.85;;;1.30;;
54947;SDS011;41113;41.882;12.530;2023-03-01T06:02:57;3.38;;;1.58;;
54947;SDS011;41113;41.882;12.530;2023-03-01T06:05:23;5.38;;;1.50;;
54947;SDS011;41113;41.882;12.530;2023-03-01T06:07:49;5.30;;;1.30;;
54947;SDS011;41113;41.882;12.530;2023-03-01T06:10:16;5.15;;;1.70;;
54947;SDS011;41113;41.882;12.530;2023-03-01T06:12:43;5.80;;;1.45;;
54947;SDS011;41113;41.882;12.530;2023-03-01T06:15:10;3.38;;;1.45;;
54947;SDS011;41113;41.882;12.530;2023-03-01T06:17:37;3.65;;;1.20;;
54947;SDS011;41113;41.882;12.530;2023-03-01T06:20:07;4.35;;;1.60;;
54947;SDS011;41113;41.882;12.530;2023-03-01T06:22:37;5.05;;;1.65;;
54947;SDS011;41113;41.882;12.530;2023-03-01T06:25:02;5.75;;;1.80;;
54947;SDS011;41113;41.882;12.530;2023-03-01T06:27:29;6.57;;;1.67;;
54947;SDS011;41113;41.882;12.530;2023-03-01T06:29:54;7.85;;;2.08;;
54947;SDS011;41113;41.882;12.530;2023-03-01T06:32:19;3.30;;;1.40;;
54947;SDS011;41113;41.882;12.530;2023-03-01T06:34:45;2.45;;;1.30;;
54947;SDS011;41113;41.882;12.530;2023-03-01T06:37:10;6.32;;;1.90;;
54947;SDS011;41113;41.882;12.530;2023-03-01T06:39:36;5.22;;;1.58;;
54947;SDS011;41113;41.882;12.530;2023-03-01T06:42:01;5.30;;;1.70;;
54947;SDS011;41113;41.882;12.530;2023-03-01T06:44:27;4.53;;;1.60;;
54947;SDS011;41113;41.882;12.530;2023-03-01T06:46:52;4.55;;;1.60;;
54947;SDS011;41113;41.882;12.530;2023-03-01T06:49:17;7.47;;;1.70;;
54947;SDS011;41113;41.882;12.530;2023-03-01T06:51:44;3.92;;;1.30;;
54947;SDS011;41113;41.882;12.530;2023-03-01T06:54:11;3.90;;;1.48;;
54947;SDS011;41113;41.882;12.530;2023-03-01T06:56:36;4.70;;;1.60;;
54947;SDS011;41113;41.882;12.530;2023-03-01T06:59:01;3.78;;;1.33;;
54947;SDS011;41113;41.882;12.530;2023-03-01T07:01:27;5.93;;;1.60;;
54947;SDS011;41113;41.882;12.530;2023-03-01T07:03:53;4.97;;;1.50;;
54947;SDS011;41113;41.882;12.530;2023-03-01T07:06:19;6.22;;;1.63;;
54947;SDS011;41113;41.882;12.530;2023-03-01T07:08:44;4.72;;;1.48;;
54947;SDS011;41113;41.882;12.530;2023-03-01T07:11:09;4.80;;;1.73;;
54947;SDS011;41113;41.882;12.530;2023-03-01T07:13:35;5.57;;;1.60;;
54947;SDS011;41113;41.882;12.530;2023-03-01T07:16:00;4.65;;;1.60;;
54947;SDS011;41113;41.882;12.530;2023-03-01T07:18:26;7.20;;;2.08;;
54947;SDS011;41113;41.882;12.530;2023-03-01T07:20:51;7.65;;;1.90;;
54947;SDS011;41113;41.882;12.530;2023-03-01T07:23:16;5.10;;;1.73;;
54947;SDS011;41113;41.882;12.530;2023-03-01T07:25:42;6.15;;;2.00;;
54947;SDS011;41113;41.882;12.530;2023-03-01T07:28:07;6.57;;;1.77;;
54947;SDS011;41113;41.882;12.530;2023-03-01T07:30:33;7.43;;;2.10;;
54947;SDS011;41113;41.882;12.530;2023-03-01T07:32:58;8.10;;;2.15;;
54947;SDS011;41113;41.882;12.530;2023-03-01T07:35:27;6.35;;;1.85;;
54947;SDS011;41113;41.882;12.530;2023-03-01T07:37:52;5.17;;;1.93;;
54947;SDS011;41113;41.882;12.530;2023-03-01T07:40:18;7.45;;;2.33;;
54947;SDS011;41113;41.882;12.530;2023-03-01T07:42:44;6.97;;;2.22;;
54947;SDS011;41113;41.882;12.530;2023-03-01T07:45:10;3.83;;;1.50;;
54947;SDS011;41113;41.882;12.530;2023-03-01T07:47:36;7.63;;;2.10;;
54947;SDS011;41113;41.882;12.530;2023-03-01T07:50:02;7.47;;;2.10;;
54947;SDS011;41113;41.882;12.530;2023-03-01T07:52:28;7.57;;;2.00;;
54947;SDS011;41113;41.882;12.530;2023-03-01T07:54:55;10.82;;;2.03;;
54947;SDS011;41113;41.882;12.530;2023-03-01T07:57:21;7.40;;;2.60;;
54947;SDS011;41113;41.882;12.530;2023-03-01T07:59:46;12.18;;;3.60;;
54947;SDS011;41113;41.882;12.530;2023-03-01T08:02:12;14.80;;;5.03;;
54947;SDS011;41113;41.882;12.530;2023-03-01T08:04:37;8.48;;;2.70;;
54947;SDS011;41113;41.882;12.530;2023-03-01T08:07:04;5.95;;;2.17;;
54947;SDS011;41113;41.882;12.530;2023-03-01T08:09:30;8.25;;;2.42;;
54947;SDS011;41113;41.882;12.530;2023-03-01T08:11:56;8.68;;;2.60;;
54947;SDS011;41113;41.882;12.530;2023-03-01T08:14:24;9.27;;;3.00;;
54947;SDS011;41113;41.882;12.530;2023-03-01T08:16:49;9.32;;;2.60;;
54947;SDS011;41113;41.882;12.530;2023-03-01T08:19:15;7.68;;;2.60;;
54947;SDS011;41113;41.882;12.530;2023-03-01T08:21:41;9.57;;;3.03;;
54947;SDS011;41113;41.882;12.530;2023-03-01T08:24:06;8.75;;;2.53;;
54947;SDS011;41113;41.882;12.530;2023-03-01T08:26:32;7.82;;;2.30;;
54947;SDS011;41113;41.882;12.530;2023-03-01T08:28:59;9.50;;;2.63;;
54947;SDS011;41113;41.882;12.530;2023-03-01T08:31:26;9.25;;;3.00;;
54947;SDS011;41113;41.882;12.530;2023-03-01T08:33:55;7.30;;;1.97;;
54947;SDS011;41113;41.882;12.530;2023-03-01T08:36:25;7.18;;;2.10;;
54947;SDS011;41113;41.882;12.530;2023-03-01T08:38:52;8.07;;;2.25;;
54947;SDS011;41113;41.882;12.530;2023-03-01T08:41:18;5.03;;;1.80;;
54947;SDS011;41113;41.882;12.530;2023-03-01T08:43:44;7.25;;;1.98;;
54947;SDS011;41113;41.882;12.530;2023-03-01T08:46:10;5.45;;;2.08;;
54947;SDS011;41113;41.882;12.530;2023-03-01T08:48:35;6.45;;;1.58;;
54947;SDS011;41113;41.882;12.530;2023-03-01T08:51:11;7.50;;;1.90;;
54947;SDS011;41113;41.882;12.530;2023-03-01T08:53:40;7.07;;;1.90;;
54947;SDS011;41113;41.882;12.530;2023-03-01T08:56:06;8.20;;;1.70;;
54947;SDS011;41113;41.882;12.530;2023-03-01T08:58:31;8.82;;;2.22;;
54947;SDS011;41113;41.882;12.530;2023-03-01T09:00:57;4.70;;;1.42;;
54947;SDS011;41113;41.882;12.530;2023-03-01T09:03:23;5.00;;;1.60;;
54947;SDS011;41113;41.882;12.530;2023-03-01T09:05:49;3.92;;;1.35;;
54947;SDS011;41113;41.882;12.530;2023-03-01T09:08:16;5.20;;;1.58;;
54947;SDS011;41113;41.882;12.530;2023-03-01T09:10:42;5.60;;;1.50;;
54947;SDS011;41113;41.882;12.530;2023-03-01T09:13:07;6.00;;;1.90;;
54947;SDS011;41113;41.882;12.530;2023-03-01T09:15:33;17.20;;;2.53;;
54947;SDS011;41113;41.882;12.530;2023-03-01T09:17:59;4.47;;;1.35;;
54947;SDS011;41113;41.882;12.530;2023-03-01T09:20:24;9.23;;;2.33;;
54947;SDS011;41113;41.882;12.530;2023-03-01T09:22:50;5.72;;;1.95;;
54947;SDS011;41113;41.882;12.530;2023-03-01T09:25:15;7.13;;;1.88;;
54947;SDS011;41113;41.882;12.530;2023-03-01T09:27:41;6.90;;;2.03;;
54947;SDS011;41113;41.882;12.530;2023-03-01T09:30:07;9.65;;;1.70;;
54947;SDS011;41113;41.882;12.530;2023-03-01T09:32:33;5.05;;;1.27;;
54947;SDS011;41113;41.882;12.530;2023-03-01T09:34:58;5.60;;;1.42;;
54947;SDS011;41113;41.882;12.530;2023-03-01T09:37:29;4.97;;;1.23;;
54947;SDS011;41113;41.882;12.530;2023-03-01T09:39:56;7.60;;;1.58;;
54947;SDS011;41113;41.882;12.530;2023-03-01T09:42:21;7.05;;;1.48;;
54947;SDS011;41113;41.882;12.530;2023-03-01T09:44:48;5.05;;;1.40;;
54947;SDS011;41113;41.882;12.530;2023-03-01T09:49:58;8.20;;;1.88;;
54947;SDS011;41113;41.882;12.530;2023-03-01T10:09:40;4.18;;;1.45;;
54947;SDS011;41113;41.882;12.530;2023-03-01T10:12:09;5.35;;;1.35;;
54947;SDS011;41113;41.882;12.530;2023-03-01T10:19:57;5.15;;;1.67;;
54947;SDS011;41113;41.882;12.530;2023-03-01T10:22:39;5.22;;;1.42;;
54947;SDS011;41113;41.882;12.530;2023-03-01T10:25:05;6.07;;;1.73;;
54947;SDS011;41113;41.882;12.530;2023-03-01T10:27:46;4.05;;;1.23;;
54947;SDS011;41113;41.882;12.530;2023-03-01T10:30:28;5.43;;;1.20;;
54947;SDS011;41113;41.882;12.530;2023-03-01T10:33:04;3.22;;;1.10;;
54947;SDS011;41113;41.882;12.530;2023-03-01T10:35:54;6.82;;;1.67;;
54947;SDS011;41113;41.882;12.530;2023-03-01T10:38:20;5.82;;;1.50;;
54947;SDS011;41113;41.882;12.530;2023-03-01T10:40:56;7.05;;;2.03;;
54947;SDS011;41113;41.882;12.530;2023-03-01T10:43:24;7.05;;;2.38;;
54947;SDS011;41113;41.882;12.530;2023-03-01T10:45:51;9.60;;;2.10;;
54947;SDS011;41113;41.882;12.530;2023-03-01T10:48:18;6.93;;;1.88;;
54947;SDS011;41113;41.882;12.530;2023-03-01T10:51:12;7.80;;;1.88;;
54947;SDS011;41113;41.882;12.530;2023-03-01T10:53:42;5.40;;;1.65;;
54947;SDS011;41113;41.882;12.530;2023-03-01T10:56:14;5.35;;;1.70;;
54947;SDS011;41113;41.882;12.530;2023-03-01T10:58:41;6.13;;;1.80;;
54947;SDS011;41113;41.882;12.530;2023-03-01T11:03:55;6.15;;;1.92;;
54947;SDS011;41113;41.882;12.530;2023-03-01T11:06:30;4.95;;;1.60;;
54947;SDS011;41113;41.882;12.530;2023-03-01T11:08:56;8.15;;;1.95;;
54947;SDS011;41113;41.882;12.530;2023-03-01T11:11:23;7.40;;;2.10;;
54947;SDS011;41113;41.882;12.530;2023-03-01T11:19:14;7.45;;;2.00;;
54947;SDS011;41113;41.882;12.530;2023-03-01T11:24:17;7.28;;;1.80;;
54947;SDS011;41113;41.882;12.530;2023-03-01T11:26:47;8.48;;;1.83;;
54947;SDS011;41113;41.882;12.530;2023-03-01T11:29:21;5.53;;;1.88;;
54947;SDS011;41113;41.882;12.530;2023-03-01T11:31:55;6.75;;;1.92;;
54947;SDS011;41113;41.882;12.530;2023-03-01T11:34:35;9.05;;;1.90;;
54947;SDS011;41113;41.882;12.530;2023-03-01T11:37:08;6.38;;;1.70;;
54947;SDS011;41113;41.882;12.530;2023-03-01T11:45:18;6.40;;;1.60;;
54947;SDS011;41113;41.882;12.530;2023-03-01T11:53:23;7.50;;;1.98;;
54947;SDS011;41113;41.882;12.530;2023-03-01T12:01:39;7.97;;;1.95;;
54947;SDS011;41113;41.882;12.530;2023-03-01T12:06:55;4.88;;;1.50;;
54947;SDS011;41113;41.882;12.530;2023-03-01T12:12:15;7.63;;;1.80;;
54947;SDS011;41113;41.882;12.530;2023-03-01T12:20:47;6.97;;;1.65;;
54947;SDS011;41113;41.882;12.530;2023-03-01T12:26:32;7.35;;;1.50;;
54947;SDS011;41113;41.882;12.530;2023-03-01T12:50:53;6.63;;;1.60;;
54947;SDS011;41113;41.882;12.530;2023-03-01T12:55:50;5.70;;;1.40;;
54947;SDS011;41113;41.882;12.530;2023-03-01T12:58:28;5.32;;;1.40;;
54947;SDS011;41113;41.882;12.530;2023-03-01T13:09:57;5.43;;;1.40;;
54947;SDS011;41113;41.882;12.530;2023-03-01T13:17:46;6.22;;;1.73;;
54947;SDS011;41113;41.882;12.530;2023-03-01T13:20:13;5.47;;;1.50;;
54947;SDS011;41113;41.882;12.530;2023-03-01T13:22:40;4.55;;;1.30;;
54947;SDS011;41113;41.882;12.530;2023-03-01T13:25:13;6.15;;;1.40;;
54947;SDS011;41113;41.882;12.530;2023-03-01T13:27:43;6.25;;;1.60;;
54947;SDS011;41113;41.882;12.530;2023-03-01T13:30:37;4.95;;;1.40;;
54947;SDS011;41113;41.882;12.530;2023-03-01T13:35:48;6.65;;;1.42;;
54947;SDS011;41113;41.882;12.530;2023-03-01T13:41:48;3.63;;;1.10;;
54947;SDS011;41113;41.882;12.530;2023-03-01T13:46:42;4.15;;;1.30;;
54947;SDS011;41113;41.882;12.530;2023-03-01T13:49:09;5.05;;;1.10;;
54947;SDS011;41113;41.882;12.530;2023-03-01T13:51:41;6.90;;;1.20;;
54947;SDS011;41113;41.882;12.530;2023-03-01T13:54:10;3.50;;;1.10;;
54947;SDS011;41113;41.882;12.530;2023-03-01T13:56:37;5.88;;;1.60;;
54947;SDS011;41113;41.882;12.530;2023-03-01T13:59:13;5.82;;;1.90;;
54947;SDS011;41113;41.882;12.530;2023-03-01T14:01:40;9.88;;;1.80;;
54947;SDS011;41113;41.882;12.530;2023-03-01T14:04:26;5.15;;;1.35;;
54947;SDS011;41113;41.882;12.530;2023-03-01T14:09:42;7.80;;;1.73;;
54947;SDS011;41113;41.882;12.530;2023-03-01T14:12:14;6.45;;;1.63;;
54947;SDS011;41113;41.882;12.530;2023-03-01T14:15:02;4.82;;;1.45;;
54947;SDS011;41113;41.882;12.530;2023-03-01T14:17:37;6.32;;;1.75;;
54947;SDS011;41113;41.882;12.530;2023-03-01T14:20:20;8.40;;;1.70;;
54947;SDS011;41113;41.882;12.530;2023-03-01T14:22:48;7.75;;;1.88;;
54947;SDS011;41113;41.882;12.530;2023-03-01T14:25:24;6.55;;;1.80;;
54947;SDS011;41113;41.882;12.530;2023-03-01T14:27:54;8.18;;;1.90;;
54947;SDS011;41113;41.882;12.530;2023-03-01T14:30:54;8.10;;;1.90;;
54947;SDS011;41113;41.882;12.530;2023-03-01T14:33:27;9.52;;;2.17;;
54947;SDS011;41113;41.882;12.530;2023-03-01T14:38:44;9.88;;;2.20;;
54947;SDS011;41113;41.882;12.530;2023-03-01T14:41:14;7.25;;;1.75;;
54947;SDS011;41113;41.882;12.530;2023-03-01T14:43:47;7.75;;;1.90;;
54947;SDS011;41113;41.882;12.530;2023-03-01T14:46:29;5.70;;;1.85;;
54947;SDS011;41113;41.882;12.530;2023-03-01T14:49:01;6.55;;;1.90;;
54947;SDS011;41113;41.882;12.530;2023-03-01T14:51:30;8.25;;;2.42;;
54947;SDS011;41113;41.882;12.530;2023-03-01T14:53:59;7.97;;;2.13;;
54947;SDS011;41113;41.882;12.530;2023-03-01T14:56:25;8.20;;;2.20;;
54947;SDS011;41113;41.882;12.530;2023-03-01T14:58:51;7.60;;;2.13;;
54947;SDS011;41113;41.882;12.530;2023-03-01T15:01:18;9.25;;;2.88;;
54947;SDS011;41113;41.882;12.530;2023-03-01T15:03:47;6.68;;;2.08;;
54947;SDS011;41113;41.882;12.530;2023-03-01T15:06:17;7.78;;;1.65;;
54947;SDS011;41113;41.882;12.530;2023-03-01T15:08:45;7.95;;;1.83;;
54947;SDS011;41113;41.882;12.530;2023-03-01T15:13:38;6.82;;;1.80;;
54947;SDS011;41113;41.882;12.530;2023-03-01T15:18:43;5.43;;;1.60;;
54947;SDS011;41113;41.882;12.530;2023-03-01T15:21:18;6.78;;;1.92;;
54947;SDS011;41113;41.882;12.530;2023-03-01T15:23:48;7.07;;;1.83;;
54947;SDS011;41113;41.882;12.530;2023-03-01T15:26:23;8.95;;;2.00;;
54947;SDS011;41113;41.882;12.530;2023-03-01T15:28:53;4.95;;;1.50;;
54947;SDS011;41113;41.882;12.530;2023-03-01T15:31:24;7.78;;;2.17;;
54947;SDS011;41113;41.882;12.530;2023-03-01T15:33:51;12.27;;;3.70;;
54947;SDS011;41113;41.882;12.530;2023-03-01T15:38:57;11.80;;;3.38;;
54947;SDS011;41113;41.882;12.530;2023-03-01T15:41:29;11.50;;;3.90;;
54947;SDS011;41113;41.882;12.530;2023-03-01T15:43:58;10.90;;;3.95;;
54947;SDS011;41113;41.882;12.530;2023-03-01T15:46:26;11.17;;;3.90;;
54947;SDS011;41113;41.882;12.530;2023-03-01T15:48:58;9.57;;;3.22;;
54947;SDS011;41113;41.882;12.530;2023-03-01T15:51:29;11.15;;;3.63;;
54947;SDS011;41113;41.882;12.530;2023-03-01T15:54:00;9.95;;;3.17;;
54947;SDS011;41113;41.882;12.530;2023-03-01T15:56:28;10.60;;;3.40;;
54947;SDS011;41113;41.882;12.530;2023-03-01T15:58:56;9.88;;;3.30;;
54947;SDS011;41113;41.882;12.530;2023-03-01T16:01:23;13.30;;;5.05;;
54947;SDS011;41113;41.882;12.530;2023-03-01T16:03:48;16.98;;;6.68;;
54947;SDS011;41113;41.882;12.530;2023-03-01T16:06:14;10.23;;;4.30;;
54947;SDS011;41113;41.882;12.530;2023-03-01T16:08:39;11.45;;;4.10;;
54947;SDS011;41113;41.882;12.530;2023-03-01T16:11:16;12.07;;;4.28;;
54947;SDS011;41113;41.882;12.530;2023-03-01T16:13:44;9.82;;;3.13;;
54947;SDS011;41113;41.882;12.530;2023-03-01T16:16:10;13.98;;;4.63;;
54947;SDS011;41113;41.882;12.530;2023-03-01T16:18:44;15.13;;;7.63;;
54947;SDS011;41113;41.882;12.530;2023-03-01T16:21:21;38.00;;;19.95;;
54947;SDS011;41113;41.882;12.530;2023-03-01T16:23:48;26.20;;;10.57;;
54947;SDS011;41113;41.882;12.530;2023-03-01T16:26:16;15.10;;;6.57;;
54947;SDS011;41113;41.882;12.530;2023-03-01T16:28:42;15.45;;;5.55;;
54947;SDS011;41113;41.882;12.530;2023-03-01T16:31:08;11.68;;;4.40;;
54947;SDS011;41113;41.882;12.530;2023-03-01T16:33:34;11.27;;;3.85;;
54947;SDS011;41113;41.882;12.530;2023-03-01T16:36:10;10.90;;;3.63;;
54947;SDS011;41113;41.882;12.530;2023-03-01T16:38:37;11.30;;;3.70;;
54947;SDS011;41113;41.882;12.530;2023-03-01T16:41:03;8.75;;;3.15;;
54947;SDS011;41113;41.882;12.530;2023-03-01T16:43:29;9.15;;;3.00;;
54947;SDS011;41113;41.882;12.530;2023-03-01T16:45:56;9.15;;;3.10;;
54947;SDS011;41113;41.882;12.530;2023-03-01T16:48:21;7.88;;;2.50;;
54947;SDS011;41113;41.882;12.530;2023-03-01T16:50:55;8.32;;;2.45;;
54947;SDS011;41113;41.882;12.530;2023-03-01T16:53:21;8.82;;;2.60;;
54947;SDS011;41113;41.882;12.530;2023-03-01T16:55:52;8.05;;;2.50;;
54947;SDS011;41113;41.882;12.530;2023-03-01T16:58:18;7.65;;;2.50;;